Time;durP1;ratioP1;P1;durP2;ratioP2;P2;SDS_P1;SDS_P2;PMS_P1;PMS_P2;Temp;Humidity;BMP_temperature;BMP_pressure;BME280_temperature;BME280_humidity;BME280_pressure;Samples;Min_cycle;Max_cycle;Signal;HPM_P1;HPM_P2
2021/12/23 00:00:28;;;;;;;43.08;29.05;;;;;;;0.63;47.25;102439.91;5091377;28;20501;-66
2021/12/23 00:02:54;;;;;;;45.13;30.42;;;;;;;0.65;46.99;102441.63;5090924;28;20780;-65
2021/12/23 00:05:21;;;;;;;41.70;28.40;;;;;;;0.54;47.43;102436.56;5091460;28;20445;-66
2021/12/23 00:07:50;;;;;;;40.90;27.90;;;;;;;0.51;47.55;102435.75;5090817;28;20991;-66
2021/12/23 00:10:17;;;;;;;43.58;29.88;;;;;;;0.59;47.51;102431.28;5091103;28;20429;-66
2021/12/23 00:12:46;;;;;;;37.00;26.00;;;;;;;0.42;47.68;102428.03;5090631;28;20495;-65
2021/12/23 00:15:24;;;;;;;34.57;24.90;;;;;;;0.35;48.17;102429.88;5090891;28;20435;-65
2021/12/23 00:17:58;;;;;;;32.83;24.07;;;;;;;0.37;47.84;102428.97;5090731;28;20930;-66
2021/12/23 00:23:27;;;;;;;37.42;24.95;;;;;;;0.35;47.89;102430.72;5090679;28;25110;-66
2021/12/23 00:26:00;;;;;;;38.22;26.42;;;;;;;0.44;47.79;102424.50;5090630;28;20538;-65
2021/12/23 00:28:28;;;;;;;34.00;25.15;;;;;;;-0.12;49.08;102431.25;5090783;28;20421;-65
2021/12/23 00:30:55;;;;;;;31.90;23.83;;;;;;;-0.07;49.09;102432.94;5090766;28;20456;-66
2021/12/23 00:33:23;;;;;;;32.13;23.48;;;;;;;0.16;48.53;102431.81;5090720;28;20404;-65
2021/12/23 00:35:52;;;;;;;37.90;26.90;;;;;;;0.27;48.21;102427.34;5090432;28;20440;-65
2021/12/23 00:38:26;;;;;;;40.88;28.48;;;;;;;0.39;47.70;102437.63;5075763;28;20420;-65
2021/12/23 00:40:53;;;;;;;40.38;29.05;;;;;;;0.36;47.90;102436.78;5090184;28;20422;-65
2021/12/23 00:43:20;;;;;;;34.05;25.15;;;;;;;0.28;48.05;102434.28;5090269;28;20410;-66
2021/12/23 00:45:47;;;;;;;32.95;26.00;;;;;;;0.29;48.19;102436.00;5090185;28;20509;-66
2021/12/23 00:48:15;;;;;;;27.92;22.50;;;;;;;0.46;47.74;102434.94;5090460;28;20403;-66
2021/12/23 00:50:43;;;;;;;28.45;21.83;;;;;;;0.45;47.84;102435.84;5090095;28;20512;-66
2021/12/23 00:53:10;;;;;;;30.70;24.58;;;;;;;0.54;47.49;102436.56;5090050;28;20496;-66
2021/12/23 00:55:40;;;;;;;31.27;21.92;;;;;;;0.51;47.46;102439.22;5089714;28;20413;-66
2021/12/23 00:58:07;;;;;;;28.73;22.55;;;;;;;0.53;47.66;102439.19;5089936;28;20842;-66
2021/12/23 01:00:34;;;;;;;29.35;22.58;;;;;;;0.56;47.31;102437.38;5090303;28;20416;-65
2021/12/23 01:03:03;;;;;;;29.30;21.87;;;;;;;0.66;47.09;102439.88;5089727;28;20620;-65
2021/12/23 01:05:31;;;;;;;34.47;24.55;;;;;;;0.70;46.86;102433.75;5089857;28;20871;-66
2021/12/23 01:07:58;;;;;;;30.27;23.08;;;;;;;0.67;46.73;102437.25;5089325;28;20452;-66
2021/12/23 01:10:26;;;;;;;31.83;23.63;;;;;;;0.49;47.14;102433.16;5089636;28;20560;-65
2021/12/23 01:12:57;;;;;;;35.58;25.17;;;;;;;0.45;47.38;102438.44;5089811;28;20802;-66
2021/12/23 01:15:59;;;;;;;32.67;24.23;;;;;;;0.53;46.79;102433.97;5089996;28;20405;-66
2021/12/23 01:18:29;;;;;;;32.75;24.50;;;;;;;0.44;46.93;102437.56;5088895;28;20803;-66
2021/12/23 01:21:04;;;;;;;29.17;22.55;;;;;;;0.39;46.89;102434.16;5089613;28;20474;-66
2021/12/23 01:23:34;;;;;;;26.52;21.23;;;;;;;0.45;46.77;102435.84;5089788;28;20498;-66
2021/12/23 01:26:01;;;;;;;28.52;20.83;;;;;;;0.42;47.04;102438.47;5089532;28;20432;-66
2021/12/23 01:28:30;;;;;;;26.05;19.50;;;;;;;0.42;46.60;102441.94;5089603;28;20440;-66
2021/12/23 01:30:56;;;;;;;28.08;20.90;;;;;;;0.49;46.79;102443.59;5089690;28;20548;-66
2021/12/23 01:33:23;;;;;;;26.05;19.38;;;;;;;0.36;46.55;102442.84;5089800;28;20450;-66
2021/12/23 01:35:50;;;;;;;24.55;19.60;;;;;;;0.49;46.57;102443.59;5089736;28;20918;-66
2021/12/23 01:38:18;;;;;;;22.83;18.17;;;;;;;0.40;46.61;102444.53;5073636;28;20470;-66
2021/12/23 01:40:46;;;;;;;22.60;18.52;;;;;;;0.42;46.27;102443.69;5089752;28;20454;-66
2021/12/23 01:43:14;;;;;;;23.33;17.73;;;;;;;0.31;46.46;102443.81;5089947;28;20404;-66
2021/12/23 01:45:46;;;;;;;23.63;18.35;;;;;;;0.36;46.44;102439.41;5089254;28;20825;-65
2021/12/23 01:48:14;;;;;;;75.80;51.17;;;;;;;0.35;46.32;102440.28;5089293;28;20485;-66
2021/12/23 01:50:42;;;;;;;21.35;17.27;;;;;;;0.18;46.47;102440.47;5089243;28;20450;-66
2021/12/23 01:53:09;;;;;;;20.67;16.67;;;;;;;0.28;46.54;102431.66;5089358;28;20544;-66
2021/12/23 01:55:37;;;;;;;23.27;20.27;;;;;;;0.17;46.83;102433.56;5089549;28;20957;-66
2021/12/23 01:58:06;;;;;;;20.65;15.85;;;;;;;0.20;46.82;102425.69;5089578;28;20536;-66
2021/12/23 02:00:36;;;;;;;19.50;15.45;;;;;;;0.10;46.89;102422.34;5089095;28;20487;-66
2021/12/23 02:03:05;;;;;;;20.13;16.35;;;;;;;0.06;47.18;102425.88;5089284;28;20446;-66
2021/12/23 02:05:32;;;;;;;20.73;16.10;;;;;;;0.17;46.54;102421.38;5089204;28;20916;-66
2021/12/23 02:08:00;;;;;;;21.63;16.60;;;;;;;0.21;46.42;102431.78;5089201;28;20813;-67
2021/12/23 02:10:28;;;;;;;22.10;17.40;;;;;;;0.23;46.76;102423.06;5089386;28;20474;-66
2021/12/23 02:12:57;;;;;;;24.02;17.90;;;;;;;0.24;46.56;102421.31;5089117;28;20846;-66
2021/12/23 02:15:24;;;;;;;23.25;17.60;;;;;;;0.22;46.38;102420.47;5089087;28;20409;-66
2021/12/23 02:17:51;;;;;;;22.50;17.88;;;;;;;0.26;46.38;102419.53;5089293;28;20471;-66
2021/12/23 02:20:21;;;;;;;26.60;20.63;;;;;;;0.13;46.68;102418.84;5091542;28;20491;-66
2021/12/23 02:22:48;;;;;;;26.02;20.77;;;;;;;0.08;46.86;102426.72;5092239;28;20965;-67
2021/12/23 02:25:17;;;;;;;24.63;19.10;;;;;;;-0.07;47.09;102422.53;5092088;28;20528;-67
2021/12/23 02:27:45;;;;;;;26.95;22.38;;;;;;;-0.07;47.52;102425.13;5092014;28;20445;-66
2021/12/23 02:30:15;;;;;;;23.60;19.83;;;;;;;-0.03;47.04;102428.56;5092507;28;20428;-66
2021/12/23 02:32:43;;;;;;;26.77;20.67;;;;;;;-0.02;47.09;102420.75;5093098;28;20507;-66
2021/12/23 02:35:16;;;;;;;24.25;19.90;;;;;;;0.02;47.26;102421.59;5093081;28;20437;-66
2021/12/23 02:37:47;;;;;;;22.77;19.35;;;;;;;0.14;46.96;102415.34;5081875;28;20389;-65
2021/12/23 02:40:28;;;;;;;23.95;18.35;;;;;;;0.07;46.76;102408.50;5091187;28;20433;-66
2021/12/23 02:42:57;;;;;;;24.27;20.20;;;;;;;-0.01;47.29;102408.56;5093047;28;20557;-66
2021/12/23 02:45:24;;;;;;;30.15;23.00;;;;;;;0.08;46.86;102413.69;5092480;28;20420;-66
2021/12/23 02:47:51;;;;;;;30.00;24.03;;;;;;;0.04;47.01;102409.41;5092850;28;20882;-66
2021/12/23 02:50:18;;;;;;;28.10;22.92;;;;;;;-0.01;47.06;102419.84;5092653;28;20435;-66
2021/12/23 02:52:46;;;;;;;29.23;22.80;;;;;;;0.07;46.97;102426.72;5093100;28;20487;-67
2021/12/23 02:55:13;;;;;;;28.75;22.52;;;;;;;-0.15;47.29;102423.50;5092362;28;20409;-66
2021/12/23 02:57:40;;;;;;;28.57;23.30;;;;;;;-0.14;47.58;102423.50;5091984;28;20412;-66
2021/12/23 03:00:09;;;;;;;28.55;21.92;;;;;;;-0.11;47.50;102431.25;5092287;28;20934;-67
2021/12/23 03:02:39;;;;;;;27.07;21.10;;;;;;;-0.12;47.53;102431.25;5092221;28;20406;-66
2021/12/23 03:05:06;;;;;;;26.75;22.20;;;;;;;-0.10;47.15;102429.50;5092102;28;20417;-66
2021/12/23 03:07:34;;;;;;;52.03;34.42;;;;;;;-0.30;47.86;102422.78;5092667;28;20990;-67
2021/12/23 03:10:03;;;;;;;31.73;25.27;;;;;;;-0.15;47.57;102423.50;5091952;28;20512;-66
2021/12/23 03:12:30;;;;;;;27.67;24.02;;;;;;;-0.18;47.57;102419.19;5092585;28;20520;-66
2021/12/23 03:14:57;;;;;;;27.60;22.70;;;;;;;-0.17;47.57;102420.03;5092183;28;20410;-67
2021/12/23 03:17:24;;;;;;;27.75;24.73;;;;;;;-0.16;47.51;102414.81;5092011;28;21038;-66
2021/12/23 03:19:51;;;;;;;26.63;21.85;;;;;;;-0.27;47.79;102416.66;5091890;28;20876;-67
2021/12/23 03:22:18;;;;;;;28.75;23.58;;;;;;;-0.29;47.92;102414.06;5092144;28;20479;-66
2021/12/23 03:24:45;;;;;;;28.27;23.60;;;;;;;-0.37;48.35;102408.06;5092310;28;20415;-67
2021/12/23 03:27:14;;;;;;;27.85;22.65;;;;;;;-0.12;47.61;102415.63;5092203;28;20392;-64
2021/12/23 03:29:41;;;;;;;27.17;22.73;;;;;;;-0.04;47.41;102408.59;5091589;28;20530;-65
2021/12/23 03:32:09;;;;;;;29.60;22.20;;;;;;;-0.15;47.67;102410.47;5091764;28;20446;-65
2021/12/23 03:34:35;;;;;;;29.37;23.17;;;;;;;-0.10;47.39;102404.34;5091934;28;20582;-65
2021/12/23 03:37:03;;;;;;;29.63;23.98;;;;;;;-0.08;47.60;102412.09;5092104;28;20404;-64
2021/12/23 03:39:29;;;;;;;29.80;23.70;;;;;;;-0.11;47.49;102415.63;5076839;28;20480;-66
2021/12/23 03:41:57;;;;;;;28.50;24.48;;;;;;;-0.05;47.26;102412.94;5091803;28;20413;-65
2021/12/23 03:44:25;;;;;;;27.77;22.92;;;;;;;-0.07;47.49;102425.13;5091653;28;20499;-65
2021/12/23 03:46:52;;;;;;;30.27;23.38;;;;;;;0.01;47.33;102421.59;5091351;28;20522;-65
2021/12/23 03:49:19;;;;;;;26.67;22.60;;;;;;;-0.15;47.44;102413.06;5091684;28;20490;-65
2021/12/23 03:51:46;;;;;;;31.65;24.77;;;;;;;-0.15;47.82;102419.13;5091217;28;20428;-65
2021/12/23 03:54:13;;;;;;;29.77;24.13;;;;;;;-0.16;47.71;102413.94;5091315;28;20494;-65
2021/12/23 03:56:40;;;;;;;27.17;22.40;;;;;;;-0.13;47.78;102413.91;5091330;28;20408;-65
2021/12/23 03:59:07;;;;;;;27.55;22.95;;;;;;;-0.20;47.68;102418.34;5091230;28;20496;-65
2021/12/23 04:01:35;;;;;;;27.60;23.70;;;;;;;-0.15;47.90;102419.13;5091583;28;20447;-65
2021/12/23 04:04:02;;;;;;;32.80;25.13;;;;;;;-0.55;48.59;102421.28;5091041;28;20975;-65
2021/12/23 04:06:29;;;;;;;40.47;35.33;;;;;;;-0.65;48.81;102418.78;5091196;28;20401;-66
2021/12/23 04:08:56;;;;;;;33.05;25.35;;;;;;;-0.51;48.88;102425.56;5090966;28;20413;-65
2021/12/23 04:11:23;;;;;;;37.90;25.70;;;;;;;-0.42;48.11;102425.50;5090799;28;20867;-65
2021/12/23 04:13:52;;;;;;;40.92;29.10;;;;;;;-0.56;48.37;102436.03;5090823;28;20760;-66
2021/12/23 04:16:20;;;;;;;27.88;22.83;;;;;;;-0.59;48.53;102430.84;5091140;28;20405;-66
2021/12/23 04:18:50;;;;;;;32.05;24.67;;;;;;;-0.39;47.76;102433.28;5091117;28;20421;-66
2021/12/23 04:21:17;;;;;;;32.72;25.30;;;;;;;-0.41;47.76;102437.63;5090997;28;20415;-66
2021/12/23 04:23:44;;;;;;;30.20;22.37;;;;;;;-0.62;48.31;102439.56;5090955;28;20412;-65
2021/12/23 04:26:12;;;;;;;28.60;22.98;;;;;;;-0.85;48.76;102441.50;5090605;28;20418;-65
2021/12/23 04:28:46;;;;;;;32.10;23.42;;;;;;;-0.88;48.71;102442.38;5090475;28;20527;-66
2021/12/23 04:31:14;;;;;;;31.90;23.65;;;;;;;-0.88;48.81;102444.09;5089368;28;20480;-66
2021/12/23 04:33:41;;;;;;;28.30;22.48;;;;;;;-1.01;49.71;102446.78;5090894;28;20435;-66
2021/12/23 04:36:10;;;;;;;29.95;23.77;;;;;;;-0.81;49.12;102446.66;5090411;28;20412;-66
2021/12/23 04:38:38;;;;;;;29.40;22.08;;;;;;;-0.67;48.95;102451.75;5075645;28;20409;-66
2021/12/23 04:41:05;;;;;;;31.85;24.40;;;;;;;-0.58;48.64;102450.81;5090018;28;20417;-67
2021/12/23 04:43:32;;;;;;;35.55;31.63;;;;;;;-0.64;48.67;102449.13;5090094;28;20496;-66
2021/12/23 04:45:59;;;;;;;36.90;27.95;;;;;;;-0.50;48.58;102451.59;5090408;28;20411;-65
2021/12/23 04:48:27;;;;;;;42.67;34.33;;;;;;;-0.42;48.33;102446.34;5090340;28;20782;-67
2021/12/23 04:50:54;;;;;;;39.50;32.78;;;;;;;-0.47;48.17;102448.97;5090009;28;20433;-66
2021/12/23 04:53:22;;;;;;;41.63;32.40;;;;;;;-0.53;48.57;102449.00;5090329;28;20402;-66
2021/12/23 04:55:49;;;;;;;39.67;29.70;;;;;;;-0.73;48.96;102444.00;5090162;28;20422;-66
2021/12/23 04:58:17;;;;;;;40.55;31.50;;;;;;;-0.62;49.03;102456.91;5088994;28;20411;-67
2021/12/23 05:00:47;;;;;;;39.78;30.77;;;;;;;-0.52;48.93;102439.50;5089632;28;20933;-67
2021/12/23 05:03:15;;;;;;;51.72;35.88;;;;;;;-0.46;48.86;102457.66;5090324;28;20422;-65
2021/12/23 05:05:43;;;;;;;87.50;59.03;;;;;;;-0.45;48.79;102452.41;5089907;28;20799;-67
2021/12/23 05:08:11;;;;;;;32.60;26.27;;;;;;;-0.68;49.91;102456.97;5089751;28;20814;-66
2021/12/23 05:10:39;;;;;;;39.08;29.85;;;;;;;-0.52;49.50;102450.75;5089649;28;20520;-66
2021/12/23 05:13:06;;;;;;;40.75;31.77;;;;;;;-0.47;48.98;102448.97;5089870;28;20409;-66
2021/12/23 05:15:33;;;;;;;42.00;31.52;;;;;;;-0.45;49.20;102451.56;5089678;28;20506;-66
2021/12/23 05:18:00;;;;;;;42.38;32.35;;;;;;;-0.40;49.23;102452.41;5089589;28;20399;-67
2021/12/23 05:20:27;;;;;;;41.08;30.83;;;;;;;-0.48;49.05;102452.47;5089213;28;20405;-67
2021/12/23 05:22:55;;;;;;;46.58;34.90;;;;;;;-0.64;50.27;102449.13;5089876;28;20411;-66
2021/12/23 05:25:22;;;;;;;43.80;33.30;;;;;;;-0.66;51.02;102456.06;5089632;28;20946;-66
2021/12/23 05:27:54;;;;;;;44.53;33.10;;;;;;;-0.75;51.45;102453.56;5089571;28;20501;-66
2021/12/23 05:30:23;;;;;;;41.42;31.35;;;;;;;-0.78;51.95;102461.38;5089376;28;20905;-67
2021/12/23 05:32:50;;;;;;;43.13;31.42;;;;;;;-0.88;52.62;102472.72;5089812;28;20418;-66
2021/12/23 05:35:19;;;;;;;37.70;31.40;;;;;;;-0.88;52.50;102462.31;5089852;28;20417;-68
2021/12/23 05:37:46;;;;;;;35.47;28.65;;;;;;;-0.78;52.63;102453.56;5077729;28;21381;-66
2021/12/23 05:40:17;;;;;;;41.73;31.27;;;;;;;-0.58;51.89;102461.22;5087673;28;20926;-67
2021/12/23 05:42:44;;;;;;;47.60;34.87;;;;;;;-0.51;51.80;102462.88;5089295;28;20425;-67
2021/12/23 05:45:14;;;;;;;56.60;40.75;;;;;;;-0.47;51.59;102467.19;5089550;28;20508;-68
2021/12/23 05:47:42;;;;;;;61.50;41.60;;;;;;;-0.58;52.06;102461.22;5089620;28;20457;-66
2021/12/23 05:50:10;;;;;;;73.95;45.65;;;;;;;-0.62;52.18;102454.31;5089383;28;20410;-66
2021/12/23 05:52:38;;;;;;;91.60;50.60;;;;;;;-0.63;52.02;102453.47;5089494;28;20531;-66
2021/12/23 05:55:06;;;;;;;90.97;53.30;;;;;;;-0.74;52.19;102452.66;5096480;28;20512;-66
2021/12/23 05:57:34;;;;;;;66.22;45.35;;;;;;;-0.76;52.27;102454.41;5095874;28;20974;-67
2021/12/23 06:00:01;;;;;;;73.70;47.53;;;;;;;-0.52;51.55;102457.72;5095774;28;20412;-67
2021/12/23 06:02:29;;;;;;;70.03;48.55;;;;;;;-0.41;51.32;102468.88;5095614;28;20398;-66
2021/12/23 06:04:56;;;;;;;132.25;93.80;;;;;;;-0.25;50.91;102470.47;5094873;28;20483;-66
2021/12/23 06:07:23;;;;;;;91.90;57.47;;;;;;;-0.33;50.83;102471.41;5095502;28;20478;-65
2021/12/23 06:09:50;;;;;;;82.40;56.17;;;;;;;-0.34;50.75;102470.56;5096070;28;20519;-66
2021/12/23 06:12:17;;;;;;;97.05;65.22;;;;;;;-0.10;50.44;102473.78;5095991;28;20932;-66
2021/12/23 06:14:44;;;;;;;73.43;48.25;;;;;;;0.33;48.85;102466.38;5095736;28;20420;-66
2021/12/23 06:17:11;;;;;;;61.80;43.65;;;;;;;0.94;47.73;102471.66;5095596;28;20455;-66
2021/12/23 06:19:40;;;;;;;57.75;42.63;;;;;;;1.64;45.94;102480.13;5095676;28;20399;-66
2021/12/23 06:22:06;;;;;;;81.93;65.40;;;;;;;2.52;43.96;102483.72;5095355;28;20784;-65
2021/12/23 06:24:34;;;;;;;61.90;47.53;;;;;;;3.33;41.79;102491.50;5095407;28;20791;-66
2021/12/23 06:27:00;;;;;;;47.45;37.47;;;;;;;3.94;40.70;102494.34;5095466;28;20499;-65
2021/12/23 06:29:27;;;;;;;53.30;39.65;;;;;;;4.56;39.03;102497.00;5095817;28;20497;-66
2021/12/23 06:31:54;;;;;;;55.40;41.25;;;;;;;5.16;37.80;102499.56;5095631;28;20443;-67
2021/12/23 06:34:21;;;;;;;47.47;40.20;;;;;;;5.05;37.44;102509.53;5095868;28;20484;-67
2021/12/23 06:36:50;;;;;;;57.05;45.83;;;;;;;6.20;35.75;102503.97;5095608;28;20409;-67
2021/12/23 06:39:17;;;;;;;60.10;47.38;;;;;;;6.98;34.19;102508.09;5095480;28;21092;-66
2021/12/23 06:41:44;;;;;;;61.22;48.47;;;;;;;7.39;32.70;102516.13;5095537;28;20882;-67
2021/12/23 06:44:11;;;;;;;45.65;37.80;;;;;;;7.72;32.21;102515.63;5096047;28;20408;-68
2021/12/23 06:46:38;;;;;;;48.10;42.83;;;;;;;8.75;30.79;102505.00;5095488;28;20413;-68
2021/12/23 06:49:05;;;;;;;48.43;41.53;;;;;;;9.31;29.70;102508.53;5095476;28;20929;-67
2021/12/23 06:51:32;;;;;;;47.80;40.95;;;;;;;10.35;28.18;102502.38;5095712;28;20424;-68
2021/12/23 06:54:02;;;;;;;48.97;39.47;;;;;;;10.65;27.53;102510.47;5096055;28;20409;-68
2021/12/23 06:56:29;;;;;;;40.25;35.65;;;;;;;11.56;26.04;102511.50;5095753;28;20408;-68
2021/12/23 06:58:56;;;;;;;45.10;38.47;;;;;;;12.54;24.84;102523.34;5095438;28;20409;-68
2021/12/23 07:01:23;;;;;;;38.73;34.50;;;;;;;13.31;23.76;102517.63;5095390;28;20968;-68
2021/12/23 07:06:32;;;;;;;46.10;38.85;;;;;;;14.11;23.08;102510.44;5088969;28;20500;-66
2021/12/23 07:09:02;;;;;;;45.75;37.72;;;;;;;14.90;21.88;102515.56;5092417;28;20417;-66
2021/12/23 07:11:29;;;;;;;35.75;30.65;;;;;;;15.88;20.75;102510.13;5092232;28;20461;-65
2021/12/23 07:13:56;;;;;;;42.50;34.87;;;;;;;16.10;20.58;102512.81;5092000;28;20509;-65
2021/12/23 07:16:23;;;;;;;38.30;33.40;;;;;;;17.04;19.76;102525.94;5091674;28;20480;-65
2021/12/23 07:18:50;;;;;;;42.53;37.73;;;;;;;17.40;18.85;102520.22;5091553;28;20413;-65
2021/12/23 07:21:17;;;;;;;35.90;32.10;;;;;;;17.97;18.70;102528.00;5090825;28;21033;-66
2021/12/23 07:23:44;;;;;;;33.75;30.13;;;;;;;18.95;17.78;102527.47;5091372;28;20500;-65
2021/12/23 07:26:12;;;;;;;30.27;27.08;;;;;;;18.82;17.47;102521.50;5092128;28;20492;-66
2021/12/23 07:28:39;;;;;;;32.60;29.15;;;;;;;18.81;17.37;102523.31;5091432;28;20415;-65
2021/12/23 07:31:06;;;;;;;29.33;26.17;;;;;;;18.25;17.29;102536.34;5091961;28;20414;-65
2021/12/23 07:33:34;;;;;;;27.25;24.35;;;;;;;18.70;17.13;102531.47;5090814;28;20492;-65
2021/12/23 07:36:02;;;;;;;27.90;25.10;;;;;;;18.79;16.87;102536.03;5091761;28;20409;-66
2021/12/23 07:38:29;;;;;;;30.40;27.20;;;;;;;19.77;16.21;102530.81;5091892;28;20405;-71
2021/12/23 07:40:56;;;;;;;31.67;28.27;;;;;;;20.04;15.38;102538.09;5091624;28;21436;-66
2021/12/23 07:43:55;;;;;;;37.80;33.92;;;;;;;19.62;15.97;102536.56;5091237;28;20409;-66
2021/12/23 07:46:22;;;;;;;38.60;34.03;;;;;;;18.92;15.95;102538.50;5091370;28;20419;-67
2021/12/23 07:48:49;;;;;;;34.40;30.83;;;;;;;18.52;16.30;102528.56;5091295;28;20452;-66
2021/12/23 07:51:16;;;;;;;39.22;33.10;;;;;;;18.25;16.75;102534.53;5091718;28;20510;-66
2021/12/23 07:53:42;;;;;;;29.65;26.67;;;;;;;20.50;14.46;102538.22;5091343;28;20433;-66
2021/12/23 07:56:09;;;;;;;25.90;23.23;;;;;;;18.39;15.58;102533.34;5091154;28;20982;-66
2021/12/23 07:58:38;;;;;;;29.65;24.13;;;;;;;19.24;15.42;102528.50;5090250;28;20409;-66
2021/12/23 08:01:05;;;;;;;26.55;23.90;;;;;;;20.81;14.25;102530.75;5091121;28;20859;-66
2021/12/23 08:03:32;;;;;;;24.88;22.38;;;;;;;22.37;12.89;102529.41;5091278;28;20906;-67
2021/12/23 08:05:59;;;;;;;25.08;22.58;;;;;;;23.36;12.12;102525.19;5091208;28;20492;-66
2021/12/23 08:08:26;;;;;;;25.60;22.90;;;;;;;23.78;12.04;102522.34;5091483;28;20492;-66
2021/12/23 08:10:54;;;;;;;24.58;22.08;;;;;;;24.28;11.91;102523.06;5091035;28;20415;-65
2021/12/23 08:13:21;;;;;;;25.63;22.75;;;;;;;22.91;12.03;102510.19;5090750;28;20425;-64
2021/12/23 08:15:49;;;;;;;27.73;24.73;;;;;;;22.52;12.56;102511.59;5090686;28;20914;-65
2021/12/23 08:18:16;;;;;;;26.95;23.77;;;;;;;23.24;12.22;102515.72;5090290;28;20492;-64
2021/12/23 08:20:43;;;;;;;29.93;24.10;;;;;;;22.63;12.16;102518.56;5090775;28;20496;-65
2021/12/23 08:23:10;;;;;;;26.58;23.83;;;;;;;22.30;12.74;102517.56;5090643;28;20488;-65
2021/12/23 08:25:37;;;;;;;23.98;21.67;;;;;;;22.64;12.23;102522.94;5090953;28;20447;-65
2021/12/23 08:28:05;;;;;;;25.63;23.20;;;;;;;22.85;12.28;102521.66;5090600;28;20413;-65
2021/12/23 08:30:32;;;;;;;25.17;22.63;;;;;;;23.47;11.96;102530.25;5090774;28;20488;-65
2021/12/23 08:33:01;;;;;;;24.42;22.05;;;;;;;22.19;12.95;102524.91;5090402;28;20991;-65
2021/12/23 08:35:28;;;;;;;24.85;22.35;;;;;;;22.18;13.01;102531.31;5090507;28;20500;-64
2021/12/23 08:37:55;;;;;;;25.48;22.80;;;;;;;23.27;11.89;102532.44;5090410;28;20466;-65
2021/12/23 08:40:23;;;;;;;25.50;23.10;;;;;;;23.20;11.98;102529.56;5088367;28;20405;-65
2021/12/23 08:42:50;;;;;;;37.67;34.22;;;;;;;22.38;12.42;102533.81;5088381;28;20440;-66
2021/12/23 08:45:19;;;;;;;26.92;24.38;;;;;;;22.83;12.54;102535.38;5088068;28;20910;-66
2021/12/23 08:47:46;;;;;;;25.98;23.48;;;;;;;23.24;11.65;102521.13;5088277;28;20421;-65
2021/12/23 08:50:16;;;;;;;26.30;23.67;;;;;;;22.68;12.46;102518.06;5088813;28;20521;-65
2021/12/23 08:52:43;;;;;;;26.33;23.58;;;;;;;24.81;11.26;102509.81;5088838;28;20740;-65
2021/12/23 08:55:11;;;;;;;24.80;22.45;;;;;;;24.35;11.21;102510.53;5089876;28;20493;-65
2021/12/23 08:57:38;;;;;;;27.20;24.55;;;;;;;25.97;10.43;102502.50;5089850;28;20416;-66
2021/12/23 09:00:10;;;;;;;24.08;21.77;;;;;;;24.26;11.66;102494.47;5090502;28;20413;-65
2021/12/23 09:02:37;;;;;;;24.83;22.48;;;;;;;25.17;10.79;102487.56;5089990;28;20496;-63
2021/12/23 09:05:05;;;;;;;25.47;23.10;;;;;;;24.76;11.30;102490.56;5089804;28;20414;-64
2021/12/23 09:07:33;;;;;;;24.98;22.67;;;;;;;24.52;11.00;102488.81;5089632;28;20492;-64
2021/12/23 09:10:00;;;;;;;26.25;23.95;;;;;;;26.18;10.32;102489.03;5089736;28;20805;-64
2021/12/23 09:12:28;;;;;;;28.40;25.52;;;;;;;26.98;10.08;102476.41;5089925;28;20433;-64
2021/12/23 09:14:55;;;;;;;26.10;23.70;;;;;;;27.41;10.02;102472.00;5089526;28;20778;-64
2021/12/23 09:17:22;;;;;;;25.77;23.10;;;;;;;27.10;9.98;102459.59;5089985;28;20409;-64
2021/12/23 09:19:49;;;;;;;25.13;22.63;;;;;;;24.80;10.97;102459.38;5089748;28;20488;-64
2021/12/23 09:22:16;;;;;;;24.77;22.45;;;;;;;26.24;10.02;102453.97;5089587;28;20492;-64
2021/12/23 09:24:46;;;;;;;24.45;21.95;;;;;;;25.95;10.18;102451.13;5089431;28;20504;-64
2021/12/23 09:27:24;;;;;;;24.25;21.83;;;;;;;27.55;9.71;102446.59;5089427;28;20458;-64
2021/12/23 09:32:52;;;;;;;34.53;31.27;;;;;;;26.93;9.79;102454.41;5089557;28;20432;-64
2021/12/23 09:35:21;;;;;;;24.90;22.60;;;;;;;27.08;9.85;102443.44;5089384;28;20902;-64
2021/12/23 09:37:49;;;;;;;24.48;22.30;;;;;;;27.61;9.50;102451.22;5089786;28;20500;-64
2021/12/23 09:40:19;;;;;;;25.33;23.03;;;;;;;28.48;8.96;102430.75;5089397;28;20496;-64
2021/12/23 09:42:47;;;;;;;25.63;23.43;;;;;;;27.89;9.39;102439.50;5089348;28;20409;-64
2021/12/23 09:45:17;;;;;;;27.48;24.67;;;;;;;27.77;9.59;102431.03;5089242;28;20964;-64
2021/12/23 09:47:46;;;;;;;27.90;25.27;;;;;;;28.37;9.01;102420.44;5089384;28;20453;-64
2021/12/23 09:50:16;;;;;;;26.33;23.83;;;;;;;26.78;9.65;102415.53;5089073;28;20413;-64
2021/12/23 09:52:45;;;;;;;25.40;23.20;;;;;;;25.73;10.56;102404.00;5089076;28;20440;-64
2021/12/23 09:55:14;;;;;;;26.88;24.38;;;;;;;26.39;10.09;102389.59;5089420;28;20405;-64
2021/12/23 09:57:45;;;;;;;28.40;25.70;;;;;;;26.89;9.68;102395.16;5087893;28;20791;-64
2021/12/23 10:00:13;;;;;;;27.37;24.77;;;;;;;27.49;9.62;102401.09;5089176;28;20408;-64
2021/12/23 10:02:42;;;;;;;27.77;25.17;;;;;;;25.59;10.86;102396.69;5089161;28;20496;-64
2021/12/23 10:05:12;;;;;;;26.95;24.40;;;;;;;24.32;11.75;102380.84;5089053;28;20947;-64
2021/12/23 10:07:41;;;;;;;28.13;25.52;;;;;;;25.57;10.93;102379.75;5089258;28;20431;-64
2021/12/23 10:10:13;;;;;;;28.70;26.05;;;;;;;25.45;11.06;102378.53;5089489;28;20413;-64
2021/12/23 10:27:35;;;;;;;27.42;24.63;;;;;;;23.81;12.01;102356.06;5089182;28;20503;-64
2021/12/23 10:30:21;;;;;;;26.33;23.63;;;;;;;22.32;12.80;102350.84;5088660;28;20412;-65
2021/12/23 10:38:36;;;;;;;26.25;23.75;;;;;;;22.17;13.33;102331.72;5088827;28;20463;-64
2021/12/23 10:41:06;;;;;;;27.77;25.08;;;;;;;22.65;13.18;102337.41;5091255;28;20409;-65
2021/12/23 10:43:37;;;;;;;29.33;26.40;;;;;;;23.24;12.22;102327.28;5092517;28;20492;-65
2021/12/23 10:46:10;;;;;;;28.83;26.02;;;;;;;21.36;13.52;102316.84;5092690;28;20432;-65
2021/12/23 10:48:47;;;;;;;28.30;25.50;;;;;;;20.38;14.58;102314.19;5092384;28;20494;-65
2021/12/23 10:51:17;;;;;;;38.57;27.37;;;;;;;21.38;13.93;102314.81;5092614;28;20409;-65
2021/12/23 10:53:53;;;;;;;29.05;26.05;;;;;;;22.10;13.12;102311.78;5092123;28;20518;-65
2021/12/23 10:59:10;;;;;;;29.45;26.60;;;;;;;19.23;15.79;102306.50;5091911;28;20412;-65
2021/12/23 11:02:06;;;;;;;28.48;25.70;;;;;;;20.58;14.46;102294.22;5091522;28;20409;-65
2021/12/23 11:04:38;;;;;;;32.25;28.95;;;;;;;20.59;14.42;102295.88;5091928;28;20416;-65
2021/12/23 11:07:15;;;;;;;30.60;27.50;;;;;;;20.27;14.91;102288.31;5091723;28;20412;-64
2021/12/23 11:10:16;;;;;;;30.73;27.70;;;;;;;18.55;16.26;102297.50;5092176;28;20513;-64
2021/12/23 11:30:36;;;;;;;29.77;26.50;;;;;;;13.88;21.17;102250.09;5091300;28;20412;-65
2021/12/23 11:38:59;;;;;;;31.85;28.50;;;;;;;13.75;21.23;102235.00;5048701;28;20405;-64
2021/12/23 11:41:35;;;;;;;33.20;29.60;;;;;;;12.75;22.30;102228.63;5086586;28;20418;-63
2021/12/23 11:44:04;;;;;;;32.10;28.63;;;;;;;11.18;23.69;102229.88;5091037;28;20440;-63
2021/12/23 11:46:37;;;;;;;33.28;29.33;;;;;;;10.76;24.63;102218.25;5090844;28;20976;-64
2021/12/23 11:49:07;;;;;;;32.97;29.48;;;;;;;10.33;25.20;102223.44;5091063;28;20409;-63
2021/12/23 11:51:46;;;;;;;33.90;30.20;;;;;;;10.13;25.78;102217.44;5090767;28;20560;-63
2021/12/23 11:54:15;;;;;;;34.30;29.63;;;;;;;9.02;26.79;102207.63;5090695;28;20432;-63
2021/12/23 11:56:46;;;;;;;34.58;28.77;;;;;;;8.89;27.49;102203.91;5090969;28;20790;-64
2021/12/23 11:59:15;;;;;;;34.92;29.50;;;;;;;8.30;28.12;102197.19;5091118;28;20420;-63
2021/12/23 12:01:46;;;;;;;36.15;29.00;;;;;;;7.85;28.95;102203.75;5091127;28;20779;-63
2021/12/23 12:04:22;;;;;;;34.80;30.15;;;;;;;7.76;29.45;102207.69;5090853;28;20462;-64
2021/12/23 12:06:53;;;;;;;33.13;28.73;;;;;;;6.98;30.79;102201.56;5090658;28;20419;-63
2021/12/23 12:09:23;;;;;;;34.00;28.40;;;;;;;6.92;30.75;102183.41;5091091;28;20450;-64
2021/12/23 12:12:06;;;;;;;32.70;28.55;;;;;;;6.67;31.25;102199.41;5091217;28;20813;-64
2021/12/23 12:14:54;;;;;;;31.75;28.35;;;;;;;6.08;32.36;102195.69;5090991;28;20406;-63